createdAt,value
2019-02-26T00:00:35.918Z,35.26
2019-02-26T00:03:06.582Z,35.25
2019-02-26T00:05:37.144Z,35.25
2019-02-26T00:08:07.535Z,35.29
2019-02-26T00:10:39.130Z,35.31
2019-02-26T00:13:09.705Z,35.32
2019-02-26T00:15:41.041Z,35.33
2019-02-26T00:18:14.033Z,35.35
2019-02-26T00:20:44.479Z,35.38
2019-02-26T00:23:15.079Z,35.36
2019-02-26T00:25:45.337Z,35.38
2019-02-26T00:28:17.524Z,35.36
2019-02-26T00:30:47.900Z,35.40
2019-02-26T00:33:21.459Z,35.40
2019-02-26T00:35:50.342Z,35.44
2019-02-26T00:38:21.704Z,35.46
2019-02-26T00:40:52.054Z,35.42
2019-02-26T00:43:25.405Z,35.43
2019-02-26T00:45:57.951Z,35.43
2019-02-26T00:48:26.691Z,35.46
2019-02-26T00:50:58.916Z,35.49
2019-02-26T00:53:30.659Z,35.49
2019-02-26T00:56:03.234Z,35.51
2019-02-26T00:58:36.994Z,35.53
2019-02-26T01:01:08.242Z,35.51
2019-02-26T01:03:38.000Z,35.51
2019-02-26T01:06:08.546Z,35.52
2019-02-26T01:08:40.244Z,35.54
2019-02-26T01:11:11.745Z,35.53
2019-02-26T01:13:42.215Z,35.53
2019-02-26T01:16:12.720Z,35.55
2019-02-26T01:18:44.375Z,35.55
2019-02-26T01:21:15.228Z,35.57
2019-02-26T01:23:48.944Z,35.59
2019-02-26T01:26:19.335Z,35.65
2019-02-26T01:28:51.207Z,35.65
2019-02-26T01:31:22.499Z,35.63
2019-02-26T01:33:55.322Z,35.65
2019-02-26T01:36:25.934Z,35.68
2019-02-26T01:38:56.315Z,35.65
2019-02-26T01:41:27.284Z,35.67
2019-02-26T01:43:57.897Z,35.70
2019-02-26T01:46:30.015Z,35.70
2019-02-26T01:49:05.049Z,35.72
2019-02-26T01:51:35.462Z,35.72
2019-02-26T01:54:08.195Z,35.72
2019-02-26T01:56:37.903Z,35.72
2019-02-26T01:59:09.570Z,35.74
2019-02-26T02:01:42.190Z,35.77
2019-02-26T02:04:12.871Z,35.78
2019-02-26T02:06:43.969Z,35.81
2019-02-26T02:09:16.339Z,35.81
2019-02-26T02:11:46.481Z,35.82
2019-02-26T02:14:17.856Z,35.83
2019-02-26T02:16:48.326Z,35.82
2019-02-26T02:19:20.852Z,35.81
2019-02-26T02:21:51.604Z,35.79
2019-02-26T02:24:24.542Z,35.84
2019-02-26T02:26:58.451Z,35.83
2019-02-26T02:29:30.148Z,35.85
2019-02-26T02:32:07.165Z,35.85
2019-02-26T02:34:40.087Z,35.84
2019-02-26T02:37:10.386Z,35.89
2019-02-26T02:39:41.907Z,35.89
2019-02-26T02:42:14.085Z,35.89
2019-02-26T02:44:46.813Z,35.89
2019-02-26T02:47:16.960Z,35.89
2019-02-26T02:49:47.414Z,35.93
2019-02-26T02:52:17.928Z,35.95
2019-02-26T02:54:49.932Z,35.95
2019-02-26T02:57:21.784Z,35.95
2019-02-26T02:59:54.567Z,35.91
2019-02-26T03:02:24.791Z,35.90
2019-02-26T03:04:55.427Z,35.94
2019-02-26T03:07:27.492Z,35.96
2019-02-26T03:10:00.447Z,35.96
2019-02-26T03:12:32.201Z,35.97
2019-02-26T03:15:05.010Z,35.97
2019-02-26T03:17:36.971Z,35.98
2019-02-26T03:20:10.046Z,35.98
2019-02-26T03:22:45.082Z,36.01
2019-02-26T03:25:14.886Z,36.00
2019-02-26T03:27:45.533Z,35.99
2019-02-26T03:30:26.433Z,36.00
2019-02-26T03:32:58.181Z,36.03
2019-02-26T03:35:25.124Z,36.02
2019-02-26T03:37:57.930Z,36.04
2019-02-26T03:40:30.079Z,36.03
2019-02-26T03:43:01.345Z,36.01
2019-02-26T03:45:31.826Z,36.01
2019-02-26T03:48:02.176Z,36.05
2019-02-26T03:50:32.464Z,36.09
2019-02-26T03:53:02.854Z,36.07
2019-02-26T03:55:39.109Z,36.10
2019-02-26T03:58:09.810Z,36.08
2019-02-26T04:00:41.712Z,36.10
2019-02-26T04:03:15.147Z,36.10
2019-02-26T04:05:45.542Z,36.10
2019-02-26T04:08:16.577Z,36.11
2019-02-26T04:10:49.913Z,36.14
2019-02-26T04:13:20.173Z,36.13
2019-02-26T04:15:51.550Z,36.14
2019-02-26T04:18:22.686Z,36.14
2019-02-26T04:20:53.046Z,36.15
2019-02-26T04:23:23.350Z,36.14
2019-02-26T04:26:29.136Z,36.14
2019-02-26T04:29:43.541Z,36.13
2019-02-26T04:32:46.230Z,36.16
2019-02-26T04:35:52.749Z,36.21
2019-02-26T04:38:57.676Z,36.21
2019-02-26T04:41:51.151Z,36.19
2019-02-26T04:45:02.121Z,36.21
2019-02-26T04:47:34.148Z,36.21
2019-02-26T04:50:06.264Z,36.22
2019-02-26T04:52:41.335Z,36.23
2019-02-26T04:55:10.810Z,36.22
2019-02-26T04:57:43.393Z,36.22
2019-02-26T05:00:15.340Z,36.21
2019-02-26T05:02:46.116Z,36.24
2019-02-26T05:05:16.406Z,36.25
2019-02-26T05:07:50.058Z,36.24
2019-02-26T05:10:24.301Z,36.14
2019-02-26T05:12:56.985Z,36.07
2019-02-26T05:15:30.029Z,36.12
2019-02-26T05:18:00.128Z,36.12
2019-02-26T05:20:31.454Z,36.13
2019-02-26T05:23:03.875Z,36.14
2019-02-26T05:25:37.356Z,36.18
2019-02-26T05:28:11.475Z,36.22
2019-02-26T05:30:41.237Z,36.22
2019-02-26T05:33:12.815Z,36.25
2019-02-26T05:35:46.002Z,36.37
2019-02-26T05:38:15.345Z,36.28
2019-02-26T05:40:47.616Z,36.30
2019-02-26T05:43:17.794Z,36.34
2019-02-26T05:45:49.147Z,36.36
2019-02-26T05:48:21.310Z,36.38
2019-02-26T05:50:53.695Z,36.46
2019-02-26T05:53:24.073Z,36.56
2019-02-26T05:55:56.034Z,36.78
2019-02-26T05:58:26.455Z,37.13
2019-02-26T06:00:56.935Z,37.35
2019-02-26T06:03:27.603Z,37.50
2019-02-26T06:06:00.331Z,37.63
2019-02-26T06:08:33.761Z,37.73
2019-02-26T06:11:01.303Z,37.81
2019-02-26T06:13:31.547Z,37.91
2019-02-26T06:16:02.190Z,37.96
2019-02-26T06:18:32.653Z,38.03
2019-02-26T06:21:03.345Z,37.99
2019-02-26T06:23:34.541Z,38.05
2019-02-26T06:26:10.730Z,38.04
2019-02-26T06:28:42.843Z,38.02
2019-02-26T06:31:14.644Z,38.03
2019-02-26T06:33:45.910Z,38.01
2019-02-26T06:36:18.620Z,38.00
2019-02-26T06:38:49.719Z,37.98
2019-02-26T06:41:21.542Z,37.95
2019-02-26T06:43:52.704Z,37.94
2019-02-26T06:46:26.248Z,37.91
2019-02-26T06:48:56.521Z,37.89
2019-02-26T06:51:28.222Z,37.87
2019-02-26T06:54:01.037Z,37.85
2019-02-26T06:56:36.846Z,37.85
2019-02-26T06:59:12.125Z,37.83
2019-02-26T07:01:42.147Z,37.83
2019-02-26T07:04:16.051Z,37.77
2019-02-26T07:06:46.599Z,37.73
2019-02-26T07:09:18.299Z,37.73
2019-02-26T07:11:49.238Z,37.69
2019-02-26T07:14:19.602Z,37.66
2019-02-26T07:16:50.026Z,37.65
2019-02-26T07:19:20.382Z,37.62
2019-02-26T07:21:52.976Z,37.62
2019-02-26T07:24:24.835Z,37.58
2019-02-26T07:26:55.513Z,37.55
2019-02-26T07:29:25.860Z,37.56
2019-02-26T07:31:57.007Z,37.51
2019-02-26T07:34:29.486Z,37.52
2019-02-26T07:37:00.093Z,37.47
2019-02-26T07:39:30.469Z,37.49
2019-02-26T07:42:01.540Z,37.47
2019-02-26T07:44:34.820Z,37.47
2019-02-26T07:47:06.711Z,37.41
2019-02-26T07:49:37.425Z,37.41
2019-02-26T07:52:08.732Z,37.42
2019-02-26T07:54:40.478Z,37.38
2019-02-26T07:57:11.491Z,37.42
2019-02-26T07:59:45.615Z,37.38
2019-02-26T08:02:16.937Z,37.41
2019-02-26T08:04:47.332Z,37.38
2019-02-26T08:07:19.161Z,37.28
2019-02-26T08:09:50.059Z,37.28
2019-02-26T08:12:20.530Z,37.29
2019-02-26T08:14:53.630Z,37.25
2019-02-26T08:17:24.132Z,37.24
2019-02-26T08:19:54.614Z,37.30
2019-02-26T08:22:27.020Z,37.28
2019-02-26T08:24:58.130Z,37.27
2019-02-26T08:27:30.828Z,37.27
2019-02-26T08:30:00.937Z,37.25
2019-02-26T08:32:33.213Z,37.23
2019-02-26T08:35:03.634Z,37.22
2019-02-26T08:37:34.506Z,37.21
2019-02-26T08:40:05.402Z,37.22
2019-02-26T08:42:35.959Z,37.19
2019-02-26T08:45:08.568Z,37.17
2019-02-26T08:47:40.253Z,37.16
2019-02-26T08:50:14.263Z,37.18
2019-02-26T08:52:47.066Z,37.15
2019-02-26T08:55:19.147Z,37.15
2019-02-26T08:57:51.226Z,37.14
2019-02-26T09:00:21.255Z,37.16
2019-02-26T09:02:56.448Z,37.17
2019-02-26T09:05:28.232Z,37.19
2019-02-26T09:07:58.001Z,37.18
2019-02-26T09:10:28.510Z,37.21
2019-02-26T09:12:59.967Z,37.22
2019-02-26T09:15:31.309Z,37.18
2019-02-26T09:18:02.891Z,37.16
2019-02-26T09:20:33.226Z,37.18
2019-02-26T09:23:03.688Z,37.12
2019-02-26T09:25:34.138Z,37.15
2019-02-26T09:28:04.673Z,37.15
2019-02-26T09:30:38.456Z,37.19
2019-02-26T09:33:10.926Z,37.20
2019-02-26T09:35:41.374Z,37.20
2019-02-26T09:38:12.357Z,37.20
2019-02-26T09:40:45.285Z,37.22
2019-02-26T09:43:17.289Z,37.21
2019-02-26T09:45:50.521Z,37.21
2019-02-26T09:48:21.967Z,37.24
2019-02-26T09:50:52.581Z,37.25
2019-02-26T09:53:23.086Z,37.23
2019-02-26T09:55:53.535Z,37.25
2019-02-26T09:58:25.348Z,37.26
2019-02-26T10:00:55.927Z,37.24
2019-02-26T10:03:27.277Z,37.26
2019-02-26T10:06:00.016Z,37.21
2019-02-26T10:08:30.746Z,37.23
2019-02-26T10:11:02.708Z,37.18
2019-02-26T10:13:34.434Z,37.18
2019-02-26T10:16:06.943Z,37.18
2019-02-26T10:18:39.753Z,37.20
2019-02-26T10:21:12.073Z,37.20
2019-02-26T10:23:47.220Z,37.16
2019-02-26T10:26:18.535Z,37.15
2019-02-26T10:28:56.164Z,37.13
2019-02-26T10:31:23.956Z,37.15
2019-02-26T10:33:53.164Z,37.13
2019-02-26T10:36:23.564Z,37.13
2019-02-26T10:38:57.780Z,37.10
2019-02-26T10:41:27.154Z,37.12
2019-02-26T10:43:57.452Z,37.09
2019-02-26T10:46:29.417Z,37.09
2019-02-26T10:48:59.983Z,37.08
2019-02-26T10:51:32.211Z,37.08
2019-02-26T10:54:03.415Z,37.06
2019-02-26T10:56:39.333Z,37.02
2019-02-26T10:59:09.238Z,37.01
2019-02-26T11:01:39.965Z,37.06
2019-02-26T11:04:10.461Z,37.00
2019-02-26T11:06:43.798Z,37.04
2019-02-26T11:09:17.405Z,37.05
2019-02-26T11:11:45.442Z,37.03
2019-02-26T11:14:17.354Z,37.03
2019-02-26T11:16:47.961Z,37.05
2019-02-26T11:19:18.259Z,37.04
2019-02-26T11:21:50.717Z,37.03
2019-02-26T11:24:23.438Z,37.08
2019-02-26T11:26:52.988Z,37.08
2019-02-26T11:29:23.298Z,37.08
2019-02-26T11:31:54.778Z,37.09
2019-02-26T11:34:27.848Z,37.11
2019-02-26T11:36:58.495Z,37.10
2019-02-26T11:39:29.647Z,37.10
2019-02-26T11:42:01.205Z,37.10
2019-02-26T11:44:31.679Z,37.10
2019-02-26T11:47:03.106Z,37.12
2019-02-26T11:49:34.887Z,37.10
2019-02-26T11:52:05.468Z,37.12
2019-02-26T11:54:37.252Z,37.11
2019-02-26T11:57:11.029Z,37.10
2019-02-26T11:59:42.794Z,37.09
2019-02-26T12:02:13.361Z,37.11
2019-02-26T12:04:46.806Z,37.08
2019-02-26T12:07:16.118Z,37.08
2019-02-26T12:09:46.605Z,37.07
2019-02-26T12:12:17.270Z,37.08
2019-02-26T12:14:48.430Z,37.08
2019-02-26T12:17:19.062Z,37.09
2019-02-26T12:19:51.465Z,37.07
2019-02-26T12:22:25.194Z,37.08
2019-02-26T12:24:56.090Z,37.10
2019-02-26T12:27:28.906Z,37.10
2019-02-26T12:29:59.216Z,37.07
2019-02-26T12:32:29.885Z,37.04
2019-02-26T12:35:00.310Z,37.06
2019-02-26T12:37:33.670Z,37.07
2019-02-26T12:40:04.209Z,37.07
2019-02-26T12:42:34.706Z,37.06
2019-02-26T12:45:09.333Z,37.07
2019-02-26T12:47:40.712Z,37.08
2019-02-26T12:50:11.728Z,37.08
2019-02-26T12:52:44.239Z,37.04
2019-02-26T12:55:14.774Z,37.08
2019-02-26T12:57:47.217Z,37.07
2019-02-26T13:00:19.971Z,37.07
2019-02-26T13:02:52.361Z,37.07
2019-02-26T13:05:23.074Z,37.07
2019-02-26T13:07:53.638Z,37.08
2019-02-26T13:10:25.319Z,37.09
2019-02-26T13:13:00.242Z,37.07
2019-02-26T13:15:27.913Z,37.05
2019-02-26T13:17:59.882Z,37.06
2019-02-26T13:20:34.171Z,37.05
2019-02-26T13:23:17.152Z,37.08
2019-02-26T13:25:37.515Z,37.08
2019-02-26T13:28:08.017Z,37.09
2019-02-26T13:30:38.450Z,37.04
2019-02-26T13:33:10.866Z,37.08
2019-02-26T13:35:42.054Z,37.10
2019-02-26T13:38:13.836Z,37.13
2019-02-26T13:41:27.342Z,37.15
2019-02-26T13:43:39.165Z,37.14
2019-02-26T13:46:09.535Z,37.20
2019-02-26T13:48:40.089Z,37.20
2019-02-26T13:51:10.592Z,37.22
2019-02-26T13:53:40.958Z,37.32
2019-02-26T13:56:11.372Z,37.37
2019-02-26T13:58:42.039Z,37.41
2019-02-26T14:01:12.748Z,37.50
2019-02-26T14:03:43.778Z,37.59
2019-02-26T14:06:17.061Z,37.69
2019-02-26T14:08:50.781Z,37.72
2019-02-26T14:11:21.145Z,37.75
2019-02-26T14:13:51.462Z,37.83
2019-02-26T14:16:21.712Z,37.89
2019-02-26T14:18:52.236Z,37.90
2019-02-26T14:21:22.717Z,37.90
2019-02-26T14:23:53.019Z,37.90
2019-02-26T14:26:23.578Z,37.93
2019-02-26T14:28:54.013Z,37.97
2019-02-26T14:31:24.508Z,37.96
2019-02-26T14:33:56.660Z,37.68
2019-02-26T14:36:27.021Z,37.77
2019-02-26T14:38:57.414Z,37.83
2019-02-26T14:41:27.865Z,37.88
2019-02-26T14:43:58.290Z,37.95
2019-02-26T14:46:28.735Z,38.02
2019-02-26T14:48:59.272Z,38.02
2019-02-26T14:51:29.713Z,37.83
2019-02-26T14:54:01.546Z,37.86
2019-02-26T14:56:37.208Z,37.86
2019-02-26T14:59:07.627Z,37.73
2019-02-26T15:01:38.095Z,37.60
2019-02-26T15:04:08.448Z,37.49
2019-02-26T15:06:39.407Z,37.49
2019-02-26T15:09:11.044Z,36.93
2019-02-26T15:11:41.685Z,36.61
2019-02-26T15:14:12.008Z,36.84
2019-02-26T15:16:42.535Z,36.98
2019-02-26T15:19:12.992Z,36.89
2019-02-26T15:21:43.416Z,37.00
2019-02-26T15:24:14.172Z,36.99
2019-02-26T15:26:44.548Z,36.99
2019-02-26T15:29:14.862Z,37.02
2019-02-26T15:31:46.944Z,37.04
2019-02-26T15:34:17.562Z,36.97
2019-02-26T15:36:51.806Z,37.05
2019-02-26T15:39:22.171Z,37.02
2019-02-26T15:41:52.708Z,37.04
2019-02-26T15:44:23.262Z,37.09
2019-02-26T15:46:53.885Z,37.12
2019-02-26T15:49:24.391Z,37.15
2019-02-26T15:51:57.649Z,37.23
2019-02-26T15:54:27.965Z,37.14
2019-02-26T15:57:00.480Z,37.07
2019-02-26T15:59:30.722Z,37.07
2019-02-26T16:02:01.244Z,37.27
2019-02-26T16:04:32.675Z,37.24
2019-02-26T16:07:04.008Z,37.17
2019-02-26T16:09:35.704Z,36.20
2019-02-26T16:12:06.091Z,35.71
2019-02-26T16:14:38.603Z,35.79
2019-02-26T16:17:09.497Z,35.86
2019-02-26T16:19:39.899Z,36.18
2019-02-26T16:22:10.261Z,36.20
2019-02-26T16:24:40.737Z,36.34
2019-02-26T16:27:11.076Z,36.38
2019-02-26T16:29:41.650Z,36.46
2019-02-26T16:32:12.000Z,36.52
2019-02-26T16:34:42.462Z,36.61
2019-02-26T16:37:12.937Z,36.66
2019-02-26T16:39:43.620Z,36.77
2019-02-26T16:42:13.932Z,36.81
2019-02-26T16:44:44.312Z,36.89
2019-02-26T16:47:15.250Z,36.88
2019-02-26T16:49:46.163Z,36.94
2019-02-26T16:52:16.610Z,37.01
2019-02-26T16:54:48.345Z,37.02
2019-02-26T16:57:18.645Z,37.05
2019-02-26T16:59:49.194Z,37.08
2019-02-26T17:02:19.854Z,37.16
2019-02-26T17:04:50.297Z,37.18
2019-02-26T17:07:20.659Z,37.22
2019-02-26T17:09:55.448Z,37.25
2019-02-26T17:12:23.476Z,37.28
2019-02-26T17:14:54.250Z,37.37
2019-02-26T17:17:24.702Z,37.33
2019-02-26T17:19:55.367Z,37.36
2019-02-26T17:22:25.700Z,37.38
2019-02-26T17:24:55.697Z,37.33
2019-02-26T17:27:26.035Z,37.38
2019-02-26T17:29:56.499Z,37.41
2019-02-26T17:32:27.233Z,37.42
2019-02-26T17:34:57.532Z,37.42
2019-02-26T17:37:28.010Z,37.48
2019-02-26T17:40:02.977Z,37.44
2019-02-26T17:42:34.387Z,37.50
2019-02-26T17:45:05.504Z,37.51
2019-02-26T17:47:36.015Z,37.54
2019-02-26T17:50:09.671Z,37.55
2019-02-26T17:52:39.915Z,37.55
2019-02-26T17:55:10.416Z,37.57
2019-02-26T17:57:41.203Z,37.57
2019-02-26T18:00:13.256Z,37.58
2019-02-26T18:02:43.787Z,37.55
2019-02-26T18:05:14.439Z,37.64
2019-02-26T18:07:44.962Z,37.62
2019-02-26T18:10:16.636Z,37.59
2019-02-26T18:12:47.209Z,37.59
2019-02-26T18:15:18.509Z,37.58
2019-02-26T18:17:49.029Z,37.63
2019-02-26T18:20:19.817Z,37.64
2019-02-26T18:22:50.139Z,37.67
2019-02-26T18:25:22.417Z,37.69
2019-02-26T18:27:52.995Z,37.64
2019-02-26T18:30:23.605Z,37.64
2019-02-26T18:32:58.810Z,37.70
2019-02-26T18:35:28.037Z,37.69
2019-02-26T18:37:58.564Z,37.66
2019-02-26T18:40:29.110Z,37.68
2019-02-26T18:42:59.490Z,37.68
2019-02-26T18:45:30.050Z,37.66
2019-02-26T18:48:03.159Z,37.68
2019-02-26T18:50:33.790Z,37.65
2019-02-26T18:53:07.034Z,37.68
2019-02-26T18:55:37.514Z,37.68
2019-02-26T18:58:08.230Z,37.71
2019-02-26T19:00:38.664Z,37.73
2019-02-26T19:03:11.100Z,37.74
2019-02-26T19:05:44.560Z,37.74
2019-02-26T19:08:15.079Z,37.71
2019-02-26T19:10:45.464Z,37.68
2019-02-26T19:13:16.877Z,37.67
2019-02-26T19:15:48.468Z,37.67
2019-02-26T19:18:19.052Z,37.69
2019-02-26T19:20:49.699Z,37.71
2019-02-26T19:23:20.385Z,37.67
2019-02-26T19:25:50.885Z,37.68
2019-02-26T19:28:21.309Z,37.65
2019-02-26T19:30:53.012Z,37.69
2019-02-26T19:33:23.568Z,37.70
2019-02-26T19:35:56.016Z,37.66
2019-02-26T19:38:27.683Z,37.71
2019-02-26T19:41:05.658Z,37.67
2019-02-26T19:43:37.455Z,37.70
2019-02-26T19:46:09.872Z,37.71
2019-02-26T19:48:40.501Z,37.67
2019-02-26T19:51:11.175Z,37.71
2019-02-26T19:53:41.640Z,37.68
2019-02-26T19:56:12.077Z,37.71
2019-02-26T19:58:44.454Z,37.70
2019-02-26T20:01:14.897Z,37.69
2019-02-26T20:03:45.345Z,37.70
2019-02-26T20:06:15.760Z,37.68
2019-02-26T20:08:47.328Z,37.69
2019-02-26T20:11:17.953Z,37.68
2019-02-26T20:13:48.340Z,37.69
2019-02-26T20:16:19.312Z,37.68
2019-02-26T20:18:49.641Z,37.69
2019-02-26T20:21:20.192Z,37.70
2019-02-26T20:23:53.369Z,37.70
2019-02-26T20:26:23.564Z,37.64
2019-02-26T20:28:53.935Z,37.64
2019-02-26T20:31:24.310Z,37.61
2019-02-26T20:33:56.316Z,37.61
2019-02-26T20:36:26.882Z,37.64
2019-02-26T20:38:59.637Z,37.55
2019-02-26T20:41:32.586Z,37.02
2019-02-26T20:44:04.647Z,36.62
2019-02-26T20:46:35.558Z,36.78
2019-02-26T20:49:05.981Z,37.21
2019-02-26T20:51:36.509Z,37.49
2019-02-26T20:54:06.889Z,37.92
2019-02-26T20:56:37.363Z,38.60
2019-02-26T20:59:07.859Z,39.37
2019-02-26T21:01:40.153Z,39.82
2019-02-26T21:04:10.734Z,40.03
2019-02-26T21:06:41.492Z,40.27
2019-02-26T21:09:11.897Z,40.38
2019-02-26T21:11:44.496Z,40.64
2019-02-26T21:14:15.956Z,40.84
2019-02-26T21:16:46.352Z,40.95
2019-02-26T21:19:16.750Z,41.15
2019-02-26T21:21:49.118Z,41.14
2019-02-26T21:24:19.579Z,41.25
2019-02-26T21:26:52.613Z,41.36
2019-02-26T21:29:22.010Z,41.52
2019-02-26T21:31:52.755Z,41.45
2019-02-26T21:34:23.259Z,41.71
2019-02-26T21:36:53.549Z,41.68
2019-02-26T21:39:25.027Z,41.68
2019-02-26T21:41:56.404Z,41.79
2019-02-26T21:44:26.963Z,41.81
2019-02-26T21:46:57.358Z,41.88
2019-02-26T21:49:28.095Z,41.86
2019-02-26T21:51:58.515Z,42.00
2019-02-26T21:54:30.939Z,42.07
2019-02-26T21:57:01.394Z,42.00
2019-02-26T21:59:32.763Z,42.03
2019-02-26T22:02:03.894Z,42.13
2019-02-26T22:04:34.203Z,41.95
2019-02-26T22:07:04.606Z,42.01
2019-02-26T22:09:35.197Z,42.09
2019-02-26T22:12:05.613Z,42.13
2019-02-26T22:14:36.872Z,42.16
2019-02-26T22:17:09.619Z,42.08
2019-02-26T22:19:40.069Z,42.09
2019-02-26T22:22:12.312Z,42.10
2019-02-26T22:24:42.772Z,42.18
2019-02-26T22:27:13.291Z,42.19
2019-02-26T22:29:48.120Z,42.09
2019-02-26T22:32:18.108Z,42.11
2019-02-26T22:34:50.862Z,42.06
2019-02-26T22:37:20.623Z,42.21
2019-02-26T22:39:51.008Z,42.11
2019-02-26T22:42:21.884Z,42.09
2019-02-26T22:44:54.658Z,42.10
2019-02-26T22:47:24.693Z,42.09
2019-02-26T22:49:55.092Z,42.13
2019-02-26T22:52:25.575Z,42.01
2019-02-26T22:54:55.920Z,42.02
2019-02-26T22:57:27.616Z,42.06
2019-02-26T22:59:59.376Z,42.13
2019-02-26T23:02:31.828Z,42.07
2019-02-26T23:05:02.410Z,42.06
2019-02-26T23:07:39.145Z,42.00
2019-02-26T23:10:06.643Z,42.02
2019-02-26T23:12:38.024Z,41.97
2019-02-26T23:15:09.694Z,42.01
2019-02-26T23:17:41.121Z,42.01
2019-02-26T23:20:11.817Z,41.99
2019-02-26T23:22:42.385Z,41.94
2019-02-26T23:25:14.066Z,41.94
2019-02-26T23:27:46.121Z,41.90
2019-02-26T23:30:18.783Z,41.88
2019-02-26T23:32:49.222Z,41.91
2019-02-26T23:35:19.786Z,41.92
2019-02-26T23:37:50.185Z,41.91
2019-02-26T23:40:20.796Z,41.93
2019-02-26T23:42:51.352Z,41.95
2019-02-26T23:45:24.279Z,41.95
2019-02-26T23:47:54.733Z,41.91
2019-02-26T23:50:25.200Z,41.90
2019-02-26T23:52:55.688Z,41.85
2019-02-26T23:55:26.457Z,41.82
2019-02-26T23:57:58.053Z,41.80
